Time;durP1;ratioP1;P1;durP2;ratioP2;P2;SDS_P1;SDS_P2;PMS_P1;PMS_P2;Temp;Humidity;BMP_temperature;BMP_pressure;BME280_temperature;BME280_humidity;BME280_pressure;Samples;Min_cycle;Max_cycle;Signal;HPM_P1;HPM_P2
2024/02/13 00:00:01;;;;;;;6.88;4.20;;;6.80;99.90;;;;;;4145311;28;20161;-60
2024/02/13 00:02:02;;;;;;;5.78;4.07;;;6.80;99.90;;;;;;4143263;28;20038;-60
2024/02/13 00:04:05;;;;;;;6.05;3.85;;;6.80;99.90;;;;;;4143105;28;20045;-60
2024/02/13 00:06:05;;;;;;;8.13;4.43;;;6.80;99.90;;;;;;4143279;28;20053;-60
2024/02/13 00:08:06;;;;;;;6.68;4.10;;;6.70;99.90;;;;;;4141433;28;20049;-67
2024/02/13 00:10:11;;;;;;;12.25;4.80;;;6.70;99.90;;;;;;4138527;28;20466;-69
2024/02/13 00:12:13;;;;;;;9.75;4.70;;;6.70;99.90;;;;;;4139229;28;20056;-71
2024/02/13 00:14:14;;;;;;;6.18;3.85;;;6.70;99.90;;;;;;4143503;28;20034;-71
2024/02/13 00:16:17;;;;;;;6.57;3.78;;;6.70;99.90;;;;;;4143691;28;20091;-70
2024/02/13 00:18:18;;;;;;;6.25;4.00;;;6.70;99.90;;;;;;4142435;28;20030;-70
2024/02/13 00:20:20;;;;;;;9.68;4.68;;;6.60;99.90;;;;;;4143404;28;20083;-71
2024/02/13 00:22:20;;;;;;;6.93;4.15;;;6.60;99.90;;;;;;4143659;28;20042;-71
2024/02/13 00:24:21;;;;;;;8.73;4.63;;;6.60;99.90;;;;;;4150282;28;20032;-70
2024/02/13 00:26:23;;;;;;;8.35;4.40;;;6.60;99.90;;;;;;4142305;28;20034;-71
2024/02/13 00:28:24;;;;;;;8.40;4.40;;;6.60;99.90;;;;;;4143003;28;20141;-71
2024/02/13 00:30:24;;;;;;;9.80;4.15;;;6.60;99.90;;;;;;4143615;28;20041;-71
2024/02/13 00:32:25;;;;;;;7.10;4.05;;;6.60;99.90;;;;;;4145964;28;20049;-71
2024/02/13 00:34:26;;;;;;;8.65;4.40;;;6.50;99.90;;;;;;4143873;28;20042;-70
2024/02/13 00:36:27;;;;;;;9.18;4.97;;;6.60;99.90;;;;;;4142358;28;20068;-71
2024/02/13 00:38:29;;;;;;;6.35;3.65;;;6.50;99.90;;;;;;4145034;28;20042;-70
2024/02/13 00:40:30;;;;;;;7.65;4.60;;;6.50;99.90;;;;;;4141961;28;20759;-60
2024/02/13 00:42:35;;;;;;;12.05;4.95;;;6.50;99.90;;;;;;4142461;28;20115;-60
2024/02/13 00:44:38;;;;;;;8.60;4.00;;;6.50;99.90;;;;;;4141098;28;20414;-60
2024/02/13 00:46:39;;;;;;;8.45;3.85;;;6.50;99.90;;;;;;4148729;28;20129;-60
2024/02/13 00:48:40;;;;;;;7.43;4.03;;;6.50;99.90;;;;;;4141992;28;20030;-61
2024/02/13 00:50:44;;;;;;;8.38;4.25;;;6.50;99.90;;;;;;4141487;28;20034;-60
2024/02/13 00:52:44;;;;;;;8.73;4.10;;;6.50;99.90;;;;;;4141355;28;20394;-60
2024/02/13 00:54:45;;;;;;;8.63;4.60;;;6.50;99.90;;;;;;4144613;28;20034;-60
2024/02/13 00:56:47;;;;;;;12.82;5.03;;;6.50;99.90;;;;;;4141614;28;20395;-62
2024/02/13 00:58:47;;;;;;;7.75;4.38;;;6.50;99.90;;;;;;4142615;28;20033;-61
2024/02/13 01:00:49;;;;;;;9.15;4.53;;;6.50;99.90;;;;;;4137885;28;20042;-60
2024/02/13 01:02:49;;;;;;;7.68;4.68;;;6.50;99.90;;;;;;4141532;28;20506;-60
2024/02/13 01:04:51;;;;;;;7.72;4.18;;;6.50;99.90;;;;;;4139198;28;20063;-60
2024/02/13 01:06:51;;;;;;;7.13;4.15;;;6.50;99.90;;;;;;4143659;28;20037;-60
2024/02/13 01:08:52;;;;;;;7.32;4.43;;;6.50;99.90;;;;;;4142495;28;20099;-60
2024/02/13 01:10:53;;;;;;;10.60;4.38;;;6.40;99.90;;;;;;4142859;28;20493;-60
2024/02/13 01:12:54;;;;;;;6.95;3.67;;;6.50;99.90;;;;;;4139380;28;20042;-60
2024/02/13 01:14:54;;;;;;;9.20;4.55;;;6.40;99.90;;;;;;4142887;28;20137;-60
2024/02/13 01:16:56;;;;;;;9.18;4.50;;;6.40;99.90;;;;;;4134812;28;20038;-60
2024/02/13 01:18:56;;;;;;;7.32;4.30;;;6.40;99.90;;;;;;4142191;28;20030;-65
2024/02/13 01:20:57;;;;;;;7.65;4.53;;;6.40;99.90;;;;;;4143315;28;20034;-64
2024/02/13 01:22:58;;;;;;;9.02;4.78;;;6.40;99.90;;;;;;4147984;28;20395;-65
2024/02/13 01:24:59;;;;;;;7.80;4.65;;;6.40;99.90;;;;;;4143084;28;20113;-64
2024/02/13 01:26:59;;;;;;;6.07;3.88;;;6.40;99.90;;;;;;4139852;28;20037;-65
2024/02/13 01:29:00;;;;;;;8.73;4.13;;;6.40;99.90;;;;;;4143291;28;20061;-65
2024/02/13 01:31:02;;;;;;;7.63;4.88;;;6.40;99.90;;;;;;4146127;28;20120;-66
2024/02/13 01:33:03;;;;;;;8.25;5.25;;;6.40;99.90;;;;;;4141832;28;20141;-65
2024/02/13 01:35:04;;;;;;;12.00;4.90;;;6.40;99.90;;;;;;4140126;28;20053;-65
2024/02/13 01:37:04;;;;;;;7.55;4.30;;;6.40;99.90;;;;;;4142390;28;20034;-65
2024/02/13 01:39:05;;;;;;;8.25;4.88;;;6.40;99.90;;;;;;4144123;28;20054;-65
2024/02/13 01:41:05;;;;;;;10.32;5.10;;;6.40;99.90;;;;;;4142505;28;20463;-65
2024/02/13 01:43:06;;;;;;;9.80;5.35;;;6.40;99.90;;;;;;4141211;28;20112;-65
2024/02/13 01:45:09;;;;;;;10.57;4.90;;;6.40;99.90;;;;;;4141929;28;20124;-66
2024/02/13 01:47:11;;;;;;;9.70;5.28;;;6.40;99.90;;;;;;4144708;28;20030;-67
2024/02/13 01:49:11;;;;;;;10.18;5.53;;;6.40;99.90;;;;;;4143249;28;20068;-60
2024/02/13 01:51:15;;;;;;;13.50;5.35;;;6.30;99.90;;;;;;4141737;28;20034;-61
2024/02/13 01:53:21;;;;;;;9.43;5.22;;;6.30;99.90;;;;;;4139629;28;20470;-61
2024/02/13 01:55:28;;;;;;;9.48;5.22;;;6.30;99.90;;;;;;4141101;28;20061;-61
2024/02/13 01:57:35;;;;;;;11.02;5.88;;;6.30;99.90;;;;;;4143424;28;20461;-60
2024/02/13 01:59:38;;;;;;;9.77;5.65;;;6.30;99.90;;;;;;4142086;28;20413;-60
2024/02/13 02:01:40;;;;;;;9.18;4.90;;;6.20;99.90;;;;;;4142169;28;20030;-60
2024/02/13 02:03:41;;;;;;;9.32;5.47;;;6.20;99.90;;;;;;4139730;28;20070;-62
2024/02/13 02:05:42;;;;;;;12.50;5.45;;;6.20;99.90;;;;;;4143489;28;20042;-61
2024/02/13 02:07:42;;;;;;;11.68;5.50;;;6.20;99.90;;;;;;4141831;28;20037;-61
2024/02/13 02:09:43;;;;;;;10.05;5.20;;;6.10;99.90;;;;;;4142007;28;20034;-61
2024/02/13 02:11:44;;;;;;;12.43;5.72;;;6.10;99.90;;;;;;4142461;28;20962;-61
2024/02/13 02:13:45;;;;;;;9.63;5.50;;;6.10;99.90;;;;;;4145421;28;20474;-61
2024/02/13 02:15:45;;;;;;;9.32;5.93;;;6.00;99.90;;;;;;4140051;28;20164;-61
2024/02/13 02:17:53;;;;;;;12.48;5.57;;;6.00;99.90;;;;;;4146408;28;20110;-60
2024/02/13 02:19:54;;;;;;;9.50;5.30;;;6.00;99.90;;;;;;4142651;28;20060;-61
2024/02/13 02:21:54;;;;;;;9.18;5.95;;;6.00;99.90;;;;;;4144364;28;20117;-61
2024/02/13 02:23:55;;;;;;;11.45;5.95;;;6.00;99.90;;;;;;4145996;28;20061;-60
2024/02/13 02:25:56;;;;;;;10.30;5.13;;;5.90;99.90;;;;;;4142479;28;20042;-61
2024/02/13 02:27:59;;;;;;;10.30;5.60;;;5.80;99.90;;;;;;4144666;28;20120;-60
2024/02/13 02:30:00;;;;;;;11.50;6.25;;;5.90;99.90;;;;;;4144649;28;20042;-68
2024/02/13 02:32:01;;;;;;;12.93;6.00;;;5.80;99.90;;;;;;4148428;28;20996;-68
2024/02/13 02:34:02;;;;;;;11.15;6.20;;;5.90;99.90;;;;;;4145008;28;20082;-68
2024/02/13 02:36:02;;;;;;;11.05;6.20;;;5.80;99.90;;;;;;4145039;28;20033;-68
2024/02/13 02:38:03;;;;;;;11.40;7.05;;;5.90;99.90;;;;;;4144533;28;20044;-68
2024/02/13 02:40:04;;;;;;;8.55;5.28;;;5.80;99.90;;;;;;4142889;28;20437;-69
2024/02/13 02:42:05;;;;;;;13.20;6.45;;;5.80;99.90;;;;;;4144866;28;20505;-68
2024/02/13 02:44:06;;;;;;;9.50;5.50;;;5.90;99.90;;;;;;4144879;28;20037;-68
2024/02/13 02:46:06;;;;;;;9.00;5.45;;;5.80;99.90;;;;;;4142888;28;20426;-68
2024/02/13 02:48:07;;;;;;;12.02;6.07;;;5.80;99.90;;;;;;4140990;28;20049;-68
2024/02/13 02:50:10;;;;;;;9.52;6.15;;;5.80;99.90;;;;;;4143775;28;20125;-68
2024/02/13 02:52:11;;;;;;;11.18;6.22;;;5.80;99.90;;;;;;4141735;28;20045;-68
2024/02/13 02:54:13;;;;;;;14.20;6.70;;;5.80;99.90;;;;;;4144260;28;20081;-68
2024/02/13 02:56:15;;;;;;;12.15;5.85;;;5.80;99.90;;;;;;4144468;28;21152;-68
2024/02/13 02:58:16;;;;;;;7.60;5.55;;;5.70;99.90;;;;;;4146116;28;20041;-61
2024/02/13 03:00:19;;;;;;;9.32;6.00;;;5.80;99.90;;;;;;4137018;28;20542;-69
2024/02/13 03:02:20;;;;;;;10.13;6.10;;;5.80;99.90;;;;;;4144820;28;20064;-70
2024/02/13 03:04:20;;;;;;;7.93;5.30;;;5.80;99.90;;;;;;4144639;28;20386;-70
2024/02/13 03:06:21;;;;;;;10.18;5.63;;;5.80;99.90;;;;;;4147547;28;20061;-70
2024/02/13 03:08:22;;;;;;;8.85;5.95;;;5.80;99.90;;;;;;4137733;28;20042;-70
2024/02/13 03:10:22;;;;;;;11.38;6.30;;;5.80;99.90;;;;;;4138523;28;20439;-70
2024/02/13 03:12:25;;;;;;;9.05;5.72;;;5.80;99.90;;;;;;4144055;28;20042;-70
2024/02/13 03:14:25;;;;;;;12.00;6.07;;;5.80;99.90;;;;;;4146337;28;20034;-70
2024/02/13 03:16:26;;;;;;;11.30;6.43;;;5.70;99.90;;;;;;4143530;28;20087;-71
2024/02/13 03:18:26;;;;;;;11.15;5.68;;;5.80;99.90;;;;;;4144560;28;20046;-71
2024/02/13 03:20:27;;;;;;;10.35;5.32;;;5.70;99.90;;;;;;4143205;28;20038;-71
2024/02/13 03:22:28;;;;;;;12.40;5.80;;;5.70;99.90;;;;;;4148503;28;20045;-71
2024/02/13 03:24:28;;;;;;;8.02;5.20;;;5.70;99.90;;;;;;4145843;28;20037;-71
2024/02/13 03:26:31;;;;;;;12.32;5.38;;;5.60;99.90;;;;;;4143970;28;20041;-71
2024/02/13 03:28:31;;;;;;;;;;;5.70;99.90;;;;;;4147883;28;20033;-71
2024/02/13 03:30:32;;;;;;;9.48;5.60;;;5.60;99.90;;;;;;4143238;28;19914;-71
2024/02/13 03:32:32;;;;;;;14.40;7.00;;;5.60;99.90;;;;;;4143012;28;20413;-71
2024/02/13 03:34:33;;;;;;;10.55;6.15;;;5.70;99.90;;;;;;4147225;28;20045;-71
2024/02/13 03:36:34;;;;;;;10.55;6.20;;;5.70;99.90;;;;;;4143499;28;20076;-70
2024/02/13 03:38:38;;;;;;;8.95;5.65;;;5.60;99.90;;;;;;4144298;28;20034;-67
2024/02/13 03:40:39;;;;;;;15.35;7.22;;;5.70;99.90;;;;;;4138895;28;20487;-65
2024/02/13 03:42:39;;;;;;;10.20;6.63;;;5.70;99.90;;;;;;4147688;28;20033;-65
2024/02/13 03:44:40;;;;;;;12.10;6.35;;;5.60;99.90;;;;;;4142007;28;20483;-65
2024/02/13 03:46:42;;;;;;;15.15;7.55;;;5.60;99.90;;;;;;4146254;28;20496;-65
2024/02/13 03:48:42;;;;;;;18.98;7.30;;;5.60;99.90;;;;;;4143903;28;20097;-65
2024/02/13 03:50:43;;;;;;;13.27;6.93;;;5.60;99.90;;;;;;4143751;28;20474;-65
2024/02/13 03:52:44;;;;;;;13.18;7.32;;;5.60;99.90;;;;;;4143977;28;20140;-65
2024/02/13 03:54:44;;;;;;;11.73;6.95;;;5.50;99.90;;;;;;4143979;28;20167;-65
2024/02/13 03:56:45;;;;;;;14.85;7.18;;;5.60;99.90;;;;;;4142881;28;20046;-65
2024/02/13 03:58:46;;;;;;;13.15;8.13;;;5.60;99.90;;;;;;4143004;28;20038;-65
2024/02/13 04:00:46;;;;;;;13.77;7.00;;;5.60;99.90;;;;;;4145217;28;20498;-65
2024/02/13 04:02:47;;;;;;;11.85;7.15;;;5.60;99.90;;;;;;4130486;28;20035;-66
2024/02/13 04:04:47;;;;;;;13.23;6.68;;;5.60;99.90;;;;;;4142814;28;20540;-66
2024/02/13 04:06:48;;;;;;;12.25;7.15;;;5.60;99.90;;;;;;4148340;28;20046;-65
2024/02/13 04:08:49;;;;;;;13.18;6.95;;;5.60;99.90;;;;;;4143111;28;20042;-68
2024/02/13 04:10:50;;;;;;;15.40;8.07;;;5.70;99.90;;;;;;4142430;28;20057;-67
2024/02/13 04:12:50;;;;;;;14.63;7.75;;;5.60;99.90;;;;;;4142450;28;20049;-68
2024/02/13 04:14:51;;;;;;;11.68;7.10;;;5.60;99.90;;;;;;4142467;28;20038;-68
2024/02/13 04:16:51;;;;;;;12.45;6.97;;;5.70;99.90;;;;;;4142164;28;20069;-68
2024/02/13 04:18:53;;;;;;;12.75;7.32;;;5.60;99.90;;;;;;4143453;28;20120;-68
2024/02/13 04:20:53;;;;;;;15.88;7.13;;;5.70;99.90;;;;;;4142608;28;20046;-68
2024/02/13 04:22:54;;;;;;;12.50;7.20;;;5.60;99.90;;;;;;4145067;28;20038;-68
2024/02/13 04:24:55;;;;;;;12.02;7.60;;;5.70;99.90;;;;;;4142258;28;20069;-68
2024/02/13 04:26:55;;;;;;;10.98;6.50;;;5.60;99.90;;;;;;4143047;28;20519;-68
2024/02/13 04:28:56;;;;;;;13.63;7.85;;;5.70;99.90;;;;;;4144328;28;20048;-68
2024/02/13 04:30:56;;;;;;;11.48;6.93;;;5.70;99.90;;;;;;4142264;28;20030;-68
2024/02/13 04:32:57;;;;;;;14.85;7.68;;;5.60;99.90;;;;;;4143260;28;20510;-68
2024/02/13 04:34:59;;;;;;;13.68;7.28;;;5.60;99.90;;;;;;4135419;28;20110;-68
2024/02/13 04:37:00;;;;;;;16.17;7.30;;;5.70;99.90;;;;;;4142270;28;20046;-68
2024/02/13 04:39:01;;;;;;;13.50;7.55;;;5.70;99.90;;;;;;4141608;28;20041;-68
2024/02/13 04:41:03;;;;;;;15.80;7.05;;;5.70;99.90;;;;;;4139114;28;20125;-68
2024/02/13 04:43:06;;;;;;;14.50;7.88;;;5.70;99.90;;;;;;4146798;28;20430;-68
2024/02/13 04:45:07;;;;;;;16.73;7.90;;;5.70;99.90;;;;;;4142433;28;20403;-69
2024/02/13 04:47:07;;;;;;;15.55;7.43;;;5.70;99.90;;;;;;4146437;28;20046;-68
2024/02/13 04:49:09;;;;;;;17.00;7.57;;;5.70;99.90;;;;;;4142234;28;20604;-72
2024/02/13 04:51:10;;;;;;;17.40;8.07;;;5.60;99.90;;;;;;4141795;28;20041;-72
2024/02/13 04:53:10;;;;;;;13.75;6.82;;;5.60;99.90;;;;;;4143161;28;20061;-72
2024/02/13 04:55:11;;;;;;;16.73;7.30;;;5.70;99.90;;;;;;4148316;28;20087;-74
2024/02/13 04:57:12;;;;;;;12.77;6.55;;;5.70;99.90;;;;;;4143208;28;20524;-72
2024/02/13 04:59:15;;;;;;;15.75;7.35;;;5.70;99.90;;;;;;4141817;28;20129;-72
2024/02/13 05:01:15;;;;;;;14.00;6.10;;;5.70;99.90;;;;;;4140543;28;20084;-70
2024/02/13 05:03:17;;;;;;;15.23;7.13;;;5.60;99.90;;;;;;4142024;28;20558;-71
2024/02/13 05:07:36;;;;;;;10.75;5.70;;;5.60;99.90;;;;;;4142068;28;20113;-72
2024/02/13 05:09:37;;;;;;;12.15;6.82;;;5.60;99.90;;;;;;4143132;28;20065;-72
2024/02/13 05:11:40;;;;;;;13.85;6.97;;;5.60;99.90;;;;;;4141780;28;20519;-72
2024/02/13 05:13:41;;;;;;;13.43;6.85;;;5.60;99.90;;;;;;4143254;28;20477;-72
2024/02/13 05:15:42;;;;;;;12.48;5.88;;;5.70;99.90;;;;;;4140778;28;20034;-72
2024/02/13 05:17:44;;;;;;;16.02;7.85;;;5.60;99.90;;;;;;4141904;28;20050;-73
2024/02/13 05:19:44;;;;;;;13.15;7.22;;;5.60;99.90;;;;;;4139905;28;20487;-67
2024/02/13 05:21:45;;;;;;;15.60;6.60;;;5.60;99.90;;;;;;4139804;28;20048;-67
2024/02/13 05:23:49;;;;;;;16.88;6.93;;;5.60;99.90;;;;;;4140403;28;20073;-68
2024/02/13 05:25:49;;;;;;;13.23;5.70;;;5.60;99.90;;;;;;4136579;28;20038;-67
2024/02/13 05:27:50;;;;;;;10.55;5.75;;;5.60;99.90;;;;;;4136328;28;20376;-67
2024/02/13 05:29:51;;;;;;;10.95;5.50;;;5.60;99.90;;;;;;4139426;28;20108;-67
2024/02/13 05:31:52;;;;;;;11.95;5.72;;;5.50;99.90;;;;;;4119317;28;20130;-67
2024/02/13 05:33:53;;;;;;;13.30;6.53;;;5.60;99.90;;;;;;4144969;28;20405;-67
2024/02/13 05:35:54;;;;;;;10.55;5.30;;;5.60;99.90;;;;;;4144893;28;20057;-67
2024/02/13 05:37:54;;;;;;;11.20;5.78;;;5.60;99.90;;;;;;4141992;28;20049;-67
2024/02/13 05:39:55;;;;;;;10.32;5.40;;;5.60;99.90;;;;;;4139570;28;20120;-67
2024/02/13 05:41:56;;;;;;;12.18;6.10;;;5.60;99.90;;;;;;4143348;28;20465;-67
2024/02/13 05:43:57;;;;;;;9.32;5.55;;;5.60;99.90;;;;;;4141925;28;20132;-67
2024/02/13 05:45:57;;;;;;;10.65;5.63;;;5.60;99.90;;;;;;4141556;28;20064;-67
2024/02/13 05:47:58;;;;;;;11.07;5.68;;;5.60;99.90;;;;;;4142950;28;20038;-67
2024/02/13 05:49:59;;;;;;;10.25;5.18;;;5.60;99.90;;;;;;4141068;28;20038;-67
2024/02/13 05:51:59;;;;;;;9.50;5.03;;;5.60;99.90;;;;;;4144795;28;20054;-67
2024/02/13 05:54:04;;;;;;;13.02;5.75;;;5.60;99.90;;;;;;4148216;28;20252;-67
2024/02/13 05:56:05;;;;;;;11.77;4.97;;;5.50;99.90;;;;;;4145158;28;20053;-67
2024/02/13 05:58:06;;;;;;;8.90;4.88;;;5.60;99.90;;;;;;4145502;28;20038;-73
2024/02/13 06:00:09;;;;;;;11.10;5.20;;;5.50;99.90;;;;;;4143226;28;20039;-65
2024/02/13 06:02:10;;;;;;;9.20;4.65;;;5.50;99.90;;;;;;4147940;28;20525;-65
2024/02/13 06:04:11;;;;;;;13.65;4.97;;;5.50;99.90;;;;;;4149179;28;20058;-65
2024/02/13 06:06:11;;;;;;;9.75;5.50;;;5.50;99.90;;;;;;4142867;28;20500;-65
2024/02/13 06:08:12;;;;;;;8.32;4.63;;;5.50;99.90;;;;;;4144573;28;20041;-65
2024/02/13 06:10:13;;;;;;;10.07;4.60;;;5.50;99.90;;;;;;4144849;28;20036;-65
2024/02/13 06:12:14;;;;;;;9.90;4.88;;;5.50;99.90;;;;;;4142932;28;20545;-65
2024/02/13 06:14:15;;;;;;;10.00;4.32;;;5.50;99.90;;;;;;4144275;28;20029;-65
2024/02/13 06:16:17;;;;;;;9.25;4.78;;;5.40;99.90;;;;;;4143325;28;20063;-65
2024/02/13 06:18:18;;;;;;;11.52;4.95;;;5.40;99.90;;;;;;4144366;28;20108;-66
2024/02/13 06:20:18;;;;;;;11.80;4.80;;;5.50;99.90;;;;;;4142036;28;20065;-65
2024/02/13 06:22:19;;;;;;;7.72;3.75;;;5.50;99.90;;;;;;4141139;28;20084;-65
2024/02/13 06:24:20;;;;;;;12.25;4.85;;;5.40;99.90;;;;;;4143454;28;20483;-65
2024/02/13 06:26:20;;;;;;;10.55;4.47;;;5.40;99.90;;;;;;4143241;28;20121;-65
2024/02/13 06:28:21;;;;;;;9.88;4.35;;;5.40;99.90;;;;;;4145737;28;20137;-64
2024/02/13 06:30:22;;;;;;;10.48;3.95;;;5.40;99.90;;;;;;4143984;28;20033;-67
2024/02/13 06:32:22;;;;;;;5.90;3.42;;;5.40;99.90;;;;;;4145294;28;20065;-68
2024/02/13 06:34:23;;;;;;;9.45;3.83;;;5.40;99.90;;;;;;4143534;28;20169;-68
2024/02/13 06:36:26;;;;;;;10.23;4.28;;;5.50;99.90;;;;;;4142470;28;20038;-68
2024/02/13 06:38:26;;;;;;;8.60;3.92;;;5.40;99.90;;;;;;4144547;28;20088;-68
2024/02/13 06:40:27;;;;;;;8.48;3.60;;;5.40;99.90;;;;;;4142099;28;20026;-67
2024/02/13 06:42:28;;;;;;;7.50;3.83;;;5.50;99.90;;;;;;4145798;28;20049;-68
2024/02/13 06:44:31;;;;;;;8.85;3.88;;;5.50;99.90;;;;;;4144888;28;20026;-68
2024/02/13 06:46:32;;;;;;;6.70;3.47;;;5.50;99.90;;;;;;4122825;28;20034;-68
2024/02/13 06:48:33;;;;;;;6.53;3.83;;;5.50;99.90;;;;;;4147370;28;20026;-68
2024/02/13 06:50:33;;;;;;;7.38;3.92;;;5.40;99.90;;;;;;4145191;28;20886;-68
2024/02/13 06:52:34;;;;;;;6.40;3.50;;;5.40;99.90;;;;;;4145084;28;20041;-68
2024/02/13 06:54:34;;;;;;;8.23;4.18;;;5.50;99.90;;;;;;4145143;28;20506;-68
2024/02/13 06:56:38;;;;;;;8.85;3.90;;;5.40;99.90;;;;;;4142257;28;20054;-67
2024/02/13 06:58:39;;;;;;;10.43;4.15;;;5.50;99.90;;;;;;4147099;28;20169;-68
2024/02/13 07:00:39;;;;;;;7.18;3.55;;;5.50;99.90;;;;;;4138626;28;20038;-68
2024/02/13 07:02:40;;;;;;;10.00;3.78;;;5.50;99.90;;;;;;4142091;28;20103;-68
2024/02/13 07:04:41;;;;;;;8.00;3.67;;;5.50;99.90;;;;;;4146141;28;20050;-68
2024/02/13 07:06:42;;;;;;;8.98;3.58;;;5.50;99.90;;;;;;4143689;28;20131;-67
2024/02/13 07:08:42;;;;;;;6.95;3.83;;;5.50;99.90;;;;;;4141679;28;20034;-71
2024/02/13 07:10:43;;;;;;;11.00;4.07;;;5.50;99.90;;;;;;4144838;28;20397;-71
2024/02/13 07:12:44;;;;;;;8.80;3.80;;;5.60;99.90;;;;;;4149255;28;20481;-70
2024/02/13 07:14:44;;;;;;;7.05;3.10;;;5.50;99.90;;;;;;4147079;28;20076;-71
2024/02/13 07:16:45;;;;;;;8.52;3.00;;;5.60;99.90;;;;;;4146294;28;20527;-71
2024/02/13 07:18:45;;;;;;;9.32;3.20;;;5.60;99.90;;;;;;4145422;28;20084;-71
2024/02/13 07:20:46;;;;;;;9.18;3.35;;;5.60;99.90;;;;;;4146664;28;20030;-70
2024/02/13 07:22:48;;;;;;;8.00;3.55;;;5.70;99.90;;;;;;4144270;28;20041;-71
2024/02/13 07:24:48;;;;;;;8.13;3.28;;;5.70;99.90;;;;;;4146876;28;20029;-70
2024/02/13 07:26:49;;;;;;;7.22;3.22;;;5.70;99.90;;;;;;4144144;28;20056;-70
2024/02/13 07:28:49;;;;;;;7.25;3.25;;;5.70;99.90;;;;;;4143604;28;20062;-70
2024/02/13 07:30:50;;;;;;;8.07;3.38;;;5.80;99.90;;;;;;4138560;28;20414;-70
2024/02/13 07:32:51;;;;;;;6.32;2.83;;;5.80;99.90;;;;;;4141003;28;20533;-71
2024/02/13 07:34:52;;;;;;;6.57;2.85;;;5.80;99.90;;;;;;4143998;28;20394;-71
2024/02/13 07:36:53;;;;;;;7.03;2.67;;;5.80;99.90;;;;;;4144761;28;20036;-71
2024/02/13 07:38:56;;;;;;;4.13;2.75;;;5.80;99.90;;;;;;4142876;28;20100;-63
2024/02/13 07:40:57;;;;;;;4.95;2.85;;;5.80;99.90;;;;;;4135680;28;20069;-64
2024/02/13 07:42:58;;;;;;;6.25;3.03;;;5.90;99.90;;;;;;4145086;28;20467;-64
2024/02/13 07:44:59;;;;;;;7.32;3.05;;;5.90;99.90;;;;;;4145491;28;20069;-64
2024/02/13 07:46:59;;;;;;;5.97;3.25;;;5.90;99.90;;;;;;4143789;28;20478;-63
2024/02/13 07:49:00;;;;;;;5.25;2.83;;;6.00;99.90;;;;;;4141093;28;20061;-63
2024/02/13 07:51:01;;;;;;;6.78;2.67;;;6.00;99.90;;;;;;4144343;28;20111;-64
2024/02/13 07:53:01;;;;;;;7.90;2.70;;;6.00;99.90;;;;;;4143798;28;20137;-64
2024/02/13 07:55:05;;;;;;;7.30;3.05;;;6.20;99.90;;;;;;4141139;28;20042;-64
2024/02/13 07:57:06;;;;;;;9.95;3.00;;;6.30;99.90;;;;;;4143820;28;20121;-63
2024/02/13 07:59:07;;;;;;;6.03;2.65;;;6.60;99.90;;;;;;4144154;28;20054;-63
2024/02/13 08:01:09;;;;;;;6.28;2.70;;;7.00;99.90;;;;;;4146171;28;20433;-64
2024/02/13 08:03:11;;;;;;;7.53;3.10;;;7.30;99.90;;;;;;4141230;28;20050;-64
2024/02/13 08:05:12;;;;;;;5.83;2.80;;;7.50;99.90;;;;;;4137407;28;20698;-64
2024/02/13 08:07:13;;;;;;;4.82;2.53;;;7.70;99.90;;;;;;4140988;28;20280;-63
2024/02/13 08:09:14;;;;;;;6.85;2.83;;;8.10;99.90;;;;;;4139483;28;23196;-64
2024/02/13 08:11:16;;;;;;;5.10;2.45;;;8.40;99.90;;;;;;4136659;28;20037;-63
2024/02/13 08:13:17;;;;;;;5.35;2.22;;;8.60;99.90;;;;;;4138532;28;20062;-63
2024/02/13 08:15:17;;;;;;;5.50;2.22;;;8.90;99.90;;;;;;4138345;28;20131;-65
2024/02/13 08:17:18;;;;;;;4.90;2.47;;;9.00;99.90;;;;;;4142340;28;20475;-64
2024/02/13 08:19:19;;;;;;;6.00;2.67;;;9.30;99.90;;;;;;4138933;28;20034;-71
2024/02/13 08:21:21;;;;;;;7.05;2.60;;;9.50;99.90;;;;;;4139595;28;20030;-70
2024/02/13 08:23:21;;;;;;;3.75;2.15;;;9.50;99.90;;;;;;4139667;28;20510;-70
2024/02/13 08:25:22;;;;;;;4.82;1.92;;;9.60;99.90;;;;;;4141046;28;20073;-70
2024/02/13 08:27:23;;;;;;;5.20;2.10;;;9.80;99.90;;;;;;4139555;28;20038;-69
2024/02/13 08:29:24;;;;;;;4.22;1.92;;;10.20;99.90;;;;;;4135368;28;20568;-70
2024/02/13 08:31:25;;;;;;;5.57;2.10;;;10.30;99.90;;;;;;4141773;28;20065;-69
2024/02/13 08:33:26;;;;;;;3.03;2.00;;;10.50;99.90;;;;;;4141240;28;20551;-69
2024/02/13 08:35:27;;;;;;;9.60;2.03;;;10.80;99.90;;;;;;4137735;28;20045;-69
2024/02/13 08:37:28;;;;;;;5.50;2.08;;;11.00;99.90;;;;;;4139847;28;20116;-70
2024/02/13 08:39:29;;;;;;;4.50;2.03;;;11.10;99.90;;;;;;4138895;28;20042;-70
2024/02/13 08:41:31;;;;;;;3.58;2.00;;;10.90;99.90;;;;;;4140479;28;20112;-70
2024/02/13 08:43:32;;;;;;;5.47;2.30;;;11.10;99.90;;;;;;4138497;28;20108;-70
2024/02/13 08:45:33;;;;;;;4.53;1.85;;;11.30;99.90;;;;;;4142273;28;20087;-71
2024/02/13 08:47:34;;;;;;;5.40;1.90;;;11.40;99.90;;;;;;4140659;28;20046;-70
2024/02/13 08:49:34;;;;;;;4.85;1.95;;;11.50;99.90;;;;;;4140873;28;20068;-71
2024/02/13 08:51:35;;;;;;;5.15;1.50;;;11.30;99.90;;;;;;4134548;28;20046;-71
2024/02/13 08:53:35;;;;;;;4.53;1.90;;;10.80;99.90;;;;;;4139665;28;20426;-72
2024/02/13 08:55:36;;;;;;;7.15;1.92;;;10.80;99.90;;;;;;4140369;28;20116;-71
2024/02/13 08:57:37;;;;;;;5.45;1.88;;;10.70;99.90;;;;;;4141401;28;20635;-71
2024/02/13 08:59:40;;;;;;;4.30;2.03;;;10.40;99.90;;;;;;4140978;28;20079;-71
2024/02/13 09:01:40;;;;;;;4.65;1.63;;;10.30;99.90;;;;;;4139879;28;20041;-71
2024/02/13 09:03:42;;;;;;;5.03;1.65;;;10.10;99.90;;;;;;4142342;28;20546;-71
2024/02/13 09:05:43;;;;;;;4.70;1.80;;;10.00;99.90;;;;;;4138466;28;20053;-71
2024/02/13 09:07:43;;;;;;;4.45;2.00;;;9.70;99.90;;;;;;4139901;28;20037;-71
2024/02/13 09:09:44;;;;;;;3.65;1.77;;;9.60;99.90;;;;;;4139564;28;20942;-71
2024/02/13 09:11:45;;;;;;;4.57;1.80;;;9.70;99.90;;;;;;4139734;28;20046;-71
2024/02/13 09:13:46;;;;;;;9.95;1.90;;;9.80;99.90;;;;;;4140969;28;20455;-71
2024/02/13 09:15:47;;;;;;;3.10;1.55;;;9.90;99.90;;;;;;4140379;28;20034;-70
2024/02/13 09:17:48;;;;;;;5.35;1.80;;;10.00;99.90;;;;;;4140120;28;20041;-71
2024/02/13 09:19:48;;;;;;;5.57;2.00;;;10.10;99.90;;;;;;4142619;28;20042;-68
2024/02/13 09:21:49;;;;;;;5.15;1.70;;;10.10;99.90;;;;;;4141396;28;20406;-70
2024/02/13 09:23:50;;;;;;;4.15;1.50;;;10.10;99.90;;;;;;4140067;28;20042;-70
2024/02/13 09:25:51;;;;;;;5.15;1.63;;;10.20;99.90;;;;;;4140632;28;20117;-71
2024/02/13 09:27:54;;;;;;;4.15;1.27;;;10.10;99.90;;;;;;4140122;28;20439;-71
2024/02/13 09:29:55;;;;;;;;;;;10.10;99.90;;;;;;4142440;28;20402;-63
2024/02/13 09:31:55;;;;;;;6.93;1.70;;;10.10;99.90;;;;;;4140861;28;20000;-60
2024/02/13 09:33:56;;;;;;;2.80;1.50;;;10.10;99.90;;;;;;4143179;28;20041;-60
2024/02/13 09:35:56;;;;;;;4.10;1.52;;;10.00;99.90;;;;;;4137952;28;20148;-61
2024/02/13 09:37:58;;;;;;;4.88;1.70;;;9.90;99.90;;;;;;4138893;28;20073;-60
2024/02/13 09:40:00;;;;;;;4.10;1.52;;;9.80;99.90;;;;;;4142901;28;20041;-60
2024/02/13 09:42:03;;;;;;;6.32;2.40;;;9.80;99.90;;;;;;4139733;28;20719;-60
2024/02/13 09:44:03;;;;;;;4.53;1.50;;;9.60;99.90;;;;;;4139141;28;20132;-60
2024/02/13 09:46:06;;;;;;;4.43;1.80;;;9.60;99.90;;;;;;4140408;28;20066;-60
2024/02/13 09:48:25;;;;;;;6.13;1.83;;;9.50;99.90;;;;;;4140786;28;20052;-60
2024/02/13 09:50:31;;;;;;;3.38;1.63;;;9.40;99.90;;;;;;4135285;28;20037;-61
2024/02/13 09:52:33;;;;;;;3.22;1.50;;;9.40;99.90;;;;;;4141503;28;20406;-60
2024/02/13 09:54:35;;;;;;;4.73;1.57;;;9.40;99.90;;;;;;4140131;28;20042;-60
2024/02/13 09:56:38;;;;;;;8.38;2.10;;;9.40;99.90;;;;;;4138936;28;20288;-60
2024/02/13 09:58:39;;;;;;;3.65;1.50;;;9.40;99.90;;;;;;4136346;28;20402;-60
2024/02/13 10:00:43;;;;;;;4.10;1.97;;;9.40;99.90;;;;;;4141725;28;20509;-60
2024/02/13 10:02:47;;;;;;;5.57;1.67;;;9.40;99.90;;;;;;4136030;28;20038;-60
2024/02/13 10:04:48;;;;;;;4.88;1.80;;;9.40;99.90;;;;;;4135370;28;20053;-59
2024/02/13 10:06:50;;;;;;;3.65;1.90;;;9.50;99.90;;;;;;4139417;28;20041;-59
2024/02/13 10:08:53;;;;;;;6.82;1.98;;;9.40;99.90;;;;;;4138631;28;20034;-61
2024/02/13 10:11:04;;;;;;;6.70;1.80;;;9.50;99.90;;;;;;4138636;28;20561;-59
2024/02/13 10:13:06;;;;;;;3.53;1.67;;;9.50;99.90;;;;;;4139625;28;20060;-60
2024/02/13 10:15:08;;;;;;;5.03;1.30;;;9.50;99.90;;;;;;4137511;28;20045;-60
2024/02/13 10:17:14;;;;;;;4.95;1.80;;;9.50;99.90;;;;;;4139535;28;20088;-59
2024/02/13 10:19:16;;;;;;;6.53;1.48;;;9.50;99.90;;;;;;4135643;28;20042;-59
2024/02/13 10:21:17;;;;;;;7.82;2.08;;;9.60;99.90;;;;;;4138791;28;20406;-60
2024/02/13 10:23:24;;;;;;;9.73;2.13;;;9.60;99.90;;;;;;4140463;28;20132;-59
2024/02/13 10:25:30;;;;;;;5.40;1.60;;;9.70;99.90;;;;;;4140587;28;20753;-60
2024/02/13 10:27:32;;;;;;;5.93;1.42;;;9.80;99.90;;;;;;4141231;28;20049;-59
2024/02/13 10:29:45;;;;;;;3.10;1.20;;;9.90;99.90;;;;;;4138876;28;20378;-59
2024/02/13 10:31:45;;;;;;;5.07;1.90;;;9.90;99.90;;;;;;4138392;28;20052;-59
2024/02/13 10:33:46;;;;;;;3.00;1.50;;;9.90;99.90;;;;;;4138968;28;20802;-59
2024/02/13 10:35:52;;;;;;;3.85;1.55;;;9.90;99.90;;;;;;4140317;28;20042;-59
2024/02/13 10:37:53;;;;;;;6.13;1.92;;;9.90;99.90;;;;;;4139872;28;20026;-59